Time;durP1;ratioP1;P1;durP2;ratioP2;P2;SDS_P1;SDS_P2;PMS_P1;PMS_P2;Temp;Humidity;BMP_temperature;BMP_pressure;BME280_temperature;BME280_humidity;BME280_pressure;Samples;Min_cycle;Max_cycle;Signal;HPM_P1;HPM_P2
2022/12/13 00:00:30;;;;;;;15.35;8.60;;;;;4.00;101042.00;;;;5006784;28;20205;-73
2022/12/13 00:02:57;;;;;;;15.35;8.02;;;;;4.00;101059.00;;;;5013905;28;20200;-72
2022/12/13 00:05:25;;;;;;;13.80;8.95;;;;;4.00;101045.00;;;;5008647;28;20234;-73
2022/12/13 00:07:52;;;;;;;14.35;8.05;;;;;4.00;101046.00;;;;5007111;28;20211;-73
2022/12/13 00:10:19;;;;;;;13.65;8.27;;;;;4.00;101047.00;;;;5011925;28;20725;-73
2022/12/13 00:12:46;;;;;;;14.50;8.75;;;;;4.00;101040.00;;;;5012265;28;20656;-72
2022/12/13 00:15:15;;;;;;;13.80;8.32;;;;;3.90;101042.00;;;;5016601;28;20207;-73
2022/12/13 00:17:44;;;;;;;15.13;9.15;;;;;3.90;101033.00;;;;5013243;28;20197;-73
2022/12/13 00:20:12;;;;;;;14.23;8.68;;;;;3.90;101027.00;;;;5011989;28;20205;-73
2022/12/13 00:22:39;;;;;;;14.55;8.25;;;;;3.90;101028.00;;;;5009772;28;20200;-73
2022/12/13 00:25:07;;;;;;;14.18;8.20;;;;;3.90;101025.00;;;;5006240;28;20216;-73
2022/12/13 00:27:34;;;;;;;14.18;7.53;;;;;3.90;101026.00;;;;5013309;28;20197;-73
2022/12/13 00:30:01;;;;;;;12.15;7.03;;;;;3.90;101023.00;;;;5012717;28;20208;-73
2022/12/13 00:32:30;;;;;;;12.27;7.25;;;;;3.80;101030.00;;;;5009969;28;20208;-73
2022/12/13 00:34:57;;;;;;;11.15;6.70;;;;;3.80;101016.00;;;;5008685;28;20216;-73
2022/12/13 00:37:25;;;;;;;12.82;7.15;;;;;3.80;101012.00;;;;5008013;28;20240;-74
2022/12/13 00:39:53;;;;;;;12.85;7.68;;;;;3.80;101018.00;;;;5012043;28;20226;-73
2022/12/13 00:42:20;;;;;;;14.35;8.30;;;;;3.80;101020.00;;;;5013917;28;20195;-72
2022/12/13 00:44:47;;;;;;;14.32;7.88;;;;;3.80;101021.00;;;;5006771;28;20212;-73
2022/12/13 00:47:14;;;;;;;13.93;7.35;;;;;3.70;101013.00;;;;5011916;28;20192;-73
2022/12/13 00:49:43;;;;;;;13.88;7.72;;;;;3.70;101010.00;;;;5023647;28;20203;-73
2022/12/13 00:52:10;;;;;;;15.32;8.52;;;;;3.70;101012.00;;;;5007235;28;20208;-73
2022/12/13 00:54:37;;;;;;;12.90;7.53;;;;;3.70;101009.00;;;;5009886;28;20324;-73
2022/12/13 00:57:05;;;;;;;11.10;7.20;;;;;3.70;101004.00;;;;5009488;28;20200;-73
2022/12/13 00:59:32;;;;;;;13.23;8.23;;;;;3.70;101006.00;;;;5010488;28;20247;-73
2022/12/13 01:01:59;;;;;;;11.68;7.78;;;;;3.70;101011.00;;;;5016082;28;20209;-73
2022/12/13 01:04:27;;;;;;;14.10;7.55;;;;;3.70;101013.00;;;;5009562;28;20208;-73
2022/12/13 01:06:56;;;;;;;16.15;8.45;;;;;3.70;101005.00;;;;5006005;28;20224;-73
2022/12/13 01:09:26;;;;;;;14.85;7.68;;;;;3.70;101018.00;;;;5009840;28;20213;-73
2022/12/13 01:11:57;;;;;;;13.18;8.25;;;;;3.60;101009.00;;;;5005517;28;20864;-73
2022/12/13 01:14:25;;;;;;;13.30;7.63;;;;;3.60;101011.00;;;;5009477;28;20291;-73
2022/12/13 01:16:54;;;;;;;14.50;8.27;;;;;3.60;101018.00;;;;5011325;28;20262;-74
2022/12/13 01:19:22;;;;;;;14.80;7.78;;;;;3.60;101012.00;;;;5008733;28;20239;-73
2022/12/13 01:21:49;;;;;;;12.48;7.90;;;;;3.60;101009.00;;;;5010023;28;20663;-73
2022/12/13 01:24:19;;;;;;;12.90;7.93;;;;;3.60;101005.00;;;;5016270;28;20682;-73
2022/12/13 01:26:47;;;;;;;14.48;8.13;;;;;3.60;101007.00;;;;5008192;28;20260;-73
2022/12/13 01:29:14;;;;;;;15.40;8.75;;;;;3.60;101001.00;;;;5005682;28;20212;-73
2022/12/13 01:31:42;;;;;;;17.13;8.63;;;;;3.60;101003.00;;;;5008286;28;20204;-73
2022/12/13 01:34:10;;;;;;;16.10;8.07;;;;;3.60;101003.00;;;;5005876;28;20208;-73
2022/12/13 01:36:38;;;;;;;18.00;8.48;;;;;3.60;101002.00;;;;5011348;28;20228;-73
2022/12/13 01:39:06;;;;;;;17.58;8.60;;;;;3.50;101002.00;;;;5006097;28;20671;-73
2022/12/13 01:41:35;;;;;;;19.90;10.40;;;;;3.50;101001.00;;;;5008812;28;20215;-73
2022/12/13 01:44:04;;;;;;;15.90;8.32;;;;;3.50;101005.00;;;;5008922;28;20240;-73
2022/12/13 01:46:33;;;;;;;18.38;9.20;;;;;3.50;101004.00;;;;5007741;28;20575;-73
2022/12/13 01:49:06;;;;;;;19.13;9.30;;;;;3.50;101000.00;;;;5008490;28;20201;-73
2022/12/13 01:51:38;;;;;;;13.95;7.22;;;;;3.50;101004.00;;;;5014925;28;20197;-73
2022/12/13 01:54:09;;;;;;;14.07;7.55;;;;;3.50;101001.00;;;;5009903;28;20201;-73
2022/12/13 01:56:42;;;;;;;12.52;7.10;;;;;3.50;101004.00;;;;5019780;28;20659;-73
2022/12/13 01:59:12;;;;;;;14.18;7.85;;;;;3.50;101007.00;;;;5008245;28;20231;-73
2022/12/13 02:01:40;;;;;;;12.75;7.55;;;;;3.50;100999.00;;;;5015963;28;20201;-73
2022/12/13 02:04:08;;;;;;;16.35;7.88;;;;;3.50;100996.00;;;;5007627;28;20196;-73
2022/12/13 02:06:37;;;;;;;12.70;6.82;;;;;3.50;100993.00;;;;5011634;28;20256;-73
2022/12/13 02:09:07;;;;;;;14.90;7.95;;;;;3.50;101005.00;;;;5019117;28;20591;-73
2022/12/13 02:11:36;;;;;;;12.70;6.60;;;;;3.40;101004.00;;;;5013232;28;20217;-73
2022/12/13 02:14:05;;;;;;;12.32;6.78;;;;;3.40;101005.00;;;;5011363;28;20223;-73
2022/12/13 02:16:44;;;;;;;13.65;7.45;;;;;3.40;101000.00;;;;5005969;28;20274;-73
2022/12/13 02:19:39;;;;;;;12.07;6.90;;;;;3.40;101005.00;;;;5011833;28;20216;-74
2022/12/13 02:22:23;;;;;;;13.32;7.63;;;;;3.40;100987.00;;;;4991875;28;20192;-73
2022/12/13 02:25:08;;;;;;;13.48;7.10;;;;;3.40;100997.00;;;;5019182;28;20251;-73
2022/12/13 02:27:50;;;;;;;11.98;7.38;;;;;3.40;100999.00;;;;5014457;28;20200;-73
2022/12/13 02:30:26;;;;;;;12.15;7.22;;;;;3.40;100994.00;;;;5007268;28;20206;-73
2022/12/13 02:33:22;;;;;;;13.55;7.60;;;;;3.30;100997.00;;;;5005627;28;21029;-73
2022/12/13 02:35:55;;;;;;;9.40;6.00;;;;;3.40;101003.00;;;;5007560;28;21454;-73
2022/12/13 02:38:28;;;;;;;12.90;7.30;;;;;3.40;100991.00;;;;5008988;28;20205;-73
2022/12/13 02:41:04;;;;;;;14.23;7.65;;;;;3.40;100992.00;;;;5005414;28;20668;-73
2022/12/13 02:43:38;;;;;;;12.85;7.45;;;;;3.30;100989.00;;;;5007795;28;20692;-73
2022/12/13 02:46:10;;;;;;;14.25;7.30;;;;;3.30;100980.00;;;;5008761;28;20233;-73
2022/12/13 02:48:40;;;;;;;14.25;7.40;;;;;3.40;100976.00;;;;5015449;28;20207;-73
2022/12/13 02:51:11;;;;;;;14.43;7.00;;;;;3.30;100981.00;;;;5012287;28;20235;-73
2022/12/13 02:53:40;;;;;;;12.75;6.78;;;;;3.30;100977.00;;;;5017749;28;20708;-73
2022/12/13 02:56:08;;;;;;;13.13;7.57;;;;;3.40;100980.00;;;;5015467;28;20217;-73
2022/12/13 02:58:40;;;;;;;10.95;7.07;;;;;3.30;100971.00;;;;5017150;28;20204;-73
2022/12/13 03:01:21;;;;;;;13.02;7.50;;;;;3.30;100977.00;;;;5023042;28;20197;-73
2022/12/13 03:03:54;;;;;;;10.70;6.18;;;;;3.30;100974.00;;;;5006054;28;20204;-73
2022/12/13 03:06:36;;;;;;;13.68;7.75;;;;;3.30;100980.00;;;;5010658;28;21968;-73
2022/12/13 03:09:19;;;;;;;10.70;6.72;;;;;3.30;100976.00;;;;5013049;28;20215;-73
2022/12/13 03:15:03;;;;;;;12.75;6.32;;;;;3.30;100973.00;;;;5012401;28;20240;-73
2022/12/13 03:17:37;;;;;;;11.98;6.20;;;;;3.20;100977.00;;;;5013450;28;20210;-73
2022/12/13 03:20:06;;;;;;;14.30;7.85;;;;;3.30;100977.00;;;;5013245;28;20204;-73
2022/12/13 03:22:34;;;;;;;15.15;7.55;;;;;3.30;100977.00;;;;5016103;28;20658;-73
2022/12/13 03:25:02;;;;;;;12.55;6.53;;;;;3.30;100977.00;;;;5012323;28;20201;-73
2022/12/13 03:27:30;;;;;;;12.55;7.35;;;;;3.30;100972.00;;;;5013710;28;20216;-73
2022/12/13 03:29:58;;;;;;;13.13;6.93;;;;;3.30;100976.00;;;;5013225;28;20647;-74
2022/12/13 03:32:25;;;;;;;11.80;6.88;;;;;3.30;100976.00;;;;5011275;28;20223;-73
2022/12/13 03:34:54;;;;;;;14.68;7.68;;;;;3.30;100979.00;;;;5013026;28;20211;-73
2022/12/13 03:37:21;;;;;;;13.65;6.95;;;;;3.30;100978.00;;;;5014924;28;20224;-73
2022/12/13 03:39:49;;;;;;;11.90;6.63;;;;;3.30;100970.00;;;;5014871;28;20209;-73
2022/12/13 03:42:16;;;;;;;13.05;7.13;;;;;3.30;100970.00;;;;5013156;28;20205;-73
2022/12/13 03:44:44;;;;;;;11.73;6.80;;;;;3.30;100971.00;;;;5010170;28;20686;-73
2022/12/13 03:47:11;;;;;;;13.23;7.18;;;;;3.30;100968.00;;;;5007266;28;20227;-73
2022/12/13 03:49:40;;;;;;;14.52;7.63;;;;;3.30;100966.00;;;;5011534;28;20221;-73
2022/12/13 03:52:08;;;;;;;11.77;7.60;;;;;3.30;100972.00;;;;5012738;28;20223;-73
2022/12/13 03:54:36;;;;;;;13.55;6.97;;;;;3.40;100966.00;;;;5009918;28;20670;-74
2022/12/13 03:57:03;;;;;;;14.75;7.90;;;;;3.40;100980.00;;;;5009635;28;20668;-73
2022/12/13 03:59:30;;;;;;;11.93;6.85;;;;;3.40;100978.00;;;;5008679;28;20213;-73
2022/12/13 04:01:58;;;;;;;10.82;6.93;;;;;3.40;100983.00;;;;5011450;28;20208;-73
2022/12/13 04:04:25;;;;;;;12.82;7.22;;;;;3.40;100972.00;;;;5015092;28;20201;-73
2022/12/13 04:06:52;;;;;;;14.43;7.80;;;;;3.40;100978.00;;;;5012242;28;20221;-73
2022/12/13 04:09:22;;;;;;;14.68;7.85;;;;;3.40;100971.00;;;;5008662;28;20197;-74
2022/12/13 04:14:34;;;;;;;13.77;7.28;;;;;3.40;100968.00;;;;5013466;28;20211;-73
2022/12/13 04:17:02;;;;;;;12.60;7.45;;;;;3.40;100969.00;;;;5010602;28;20200;-73
2022/12/13 04:19:29;;;;;;;12.23;7.47;;;;;3.40;100964.00;;;;5008901;28;20208;-73
2022/12/13 04:21:56;;;;;;;12.85;7.47;;;;;3.40;100969.00;;;;5009109;28;20193;-73
2022/12/13 04:24:25;;;;;;;12.07;7.63;;;;;3.40;100975.00;;;;5013310;28;20212;-73
2022/12/13 04:26:53;;;;;;;12.05;6.55;;;;;3.40;100973.00;;;;5012727;28;20767;-73
2022/12/13 04:29:21;;;;;;;14.80;7.20;;;;;3.40;100967.00;;;;5008689;28;20208;-73
2022/12/13 04:31:48;;;;;;;12.45;8.10;;;;;3.40;100955.00;;;;5018934;28;20207;-73
2022/12/13 04:34:15;;;;;;;14.13;7.95;;;;;3.40;100964.00;;;;5020147;28;20197;-73
2022/12/13 04:36:43;;;;;;;13.68;7.20;;;;;3.40;100955.00;;;;5020708;28;20240;-73
2022/12/13 04:39:10;;;;;;;12.73;7.38;;;;;3.40;100959.00;;;;5013825;28;20211;-73
2022/12/13 04:41:39;;;;;;;12.40;7.32;;;;;3.40;100958.00;;;;5007883;28;20200;-73
2022/12/13 04:44:08;;;;;;;12.07;7.10;;;;;3.40;100954.00;;;;5016987;28;20208;-73
2022/12/13 04:46:35;;;;;;;12.13;7.20;;;;;3.40;100951.00;;;;5007331;28;20227;-73
2022/12/13 04:49:02;;;;;;;13.00;7.85;;;;;3.40;100951.00;;;;5008390;28;20215;-73
2022/12/13 04:51:30;;;;;;;12.38;7.22;;;;;3.40;100947.00;;;;5014210;28;20193;-73
2022/12/13 04:53:57;;;;;;;13.48;7.85;;;;;3.40;100944.00;;;;5006469;28;20208;-73
2022/12/13 04:56:25;;;;;;;14.77;7.20;;;;;3.40;100948.00;;;;5010064;28;20209;-73
2022/12/13 04:58:53;;;;;;;11.88;7.28;;;;;3.40;100946.00;;;;5015733;28;20201;-73
2022/12/13 05:01:21;;;;;;;14.88;8.45;;;;;3.40;100953.00;;;;5012524;28;20469;-73
2022/12/13 05:03:48;;;;;;;14.70;8.30;;;;;3.40;100940.00;;;;5010085;28;20203;-73
2022/12/13 05:06:15;;;;;;;15.80;8.38;;;;;3.50;100941.00;;;;5018991;28;20358;-73
2022/12/13 05:08:43;;;;;;;13.98;8.02;;;;;3.50;100934.00;;;;5023947;28;20199;-73
2022/12/13 05:11:12;;;;;;;12.63;8.25;;;;;3.40;100930.00;;;;5021675;28;20299;-73
2022/12/13 05:13:40;;;;;;;11.50;7.22;;;;;3.50;100925.00;;;;5014566;28;20197;-74
2022/12/13 05:16:09;;;;;;;12.73;6.82;;;;;3.50;100928.00;;;;5007860;28;20259;-74
2022/12/13 05:18:37;;;;;;;12.88;7.30;;;;;3.50;100929.00;;;;5017672;28;20621;-73
2022/12/13 05:21:06;;;;;;;14.27;8.10;;;;;3.50;100928.00;;;;5017861;28;20204;-74
2022/12/13 05:23:34;;;;;;;13.50;7.20;;;;;3.50;100933.00;;;;5015998;28;20201;-73
2022/12/13 05:26:01;;;;;;;14.20;7.63;;;;;3.50;100926.00;;;;5023246;28;20196;-73
2022/12/13 05:28:30;;;;;;;12.90;7.50;;;;;3.50;100932.00;;;;5018754;28;20204;-74
2022/12/13 05:30:59;;;;;;;12.55;7.38;;;;;3.50;100919.00;;;;5015425;28;20764;-73
2022/12/13 05:33:28;;;;;;;12.23;6.95;;;;;3.50;100924.00;;;;5024151;28;20192;-74
2022/12/13 05:35:55;;;;;;;13.48;8.45;;;;;3.50;100922.00;;;;5017200;28;20231;-73
2022/12/13 05:38:23;;;;;;;13.57;7.75;;;;;3.50;100923.00;;;;5008008;28;20577;-73
2022/12/13 05:40:50;;;;;;;14.40;7.88;;;;;3.50;100925.00;;;;5019562;28;20197;-74
2022/12/13 05:43:17;;;;;;;13.20;8.20;;;;;3.50;100928.00;;;;5012761;28;20216;-74
2022/12/13 05:45:46;;;;;;;13.98;7.30;;;;;3.50;100921.00;;;;5017529;28;20201;-73
2022/12/13 05:48:13;;;;;;;12.30;6.60;;;;;3.50;100923.00;;;;5009644;28;20271;-74
2022/12/13 05:50:41;;;;;;;12.57;7.95;;;;;3.40;100917.00;;;;5016983;28;20196;-73
2022/12/13 05:53:09;;;;;;;13.82;8.45;;;;;3.50;100919.00;;;;5005422;28;20204;-74
2022/12/13 05:55:38;;;;;;;13.07;7.65;;;;;3.50;100913.00;;;;5006937;28;20199;-74
2022/12/13 05:58:05;;;;;;;12.48;7.55;;;;;3.40;100914.00;;;;5019057;28;20212;-73
2022/12/13 06:00:32;;;;;;;13.05;7.85;;;;;3.50;100909.00;;;;5006963;28;20205;-73
2022/12/13 06:03:00;;;;;;;13.82;8.02;;;;;3.40;100922.00;;;;5014371;28;20216;-73
2022/12/13 06:05:28;;;;;;;13.02;7.72;;;;;3.40;100920.00;;;;5019869;28;20221;-73
2022/12/13 06:07:57;;;;;;;13.13;7.70;;;;;3.40;100915.00;;;;5021599;28;20227;-73
2022/12/13 06:10:25;;;;;;;13.70;8.55;;;;;3.40;100918.00;;;;5026458;28;20223;-73
2022/12/13 06:12:52;;;;;;;12.85;7.55;;;;;3.40;100920.00;;;;5011699;28;20204;-73
2022/12/13 06:15:19;;;;;;;13.05;7.78;;;;;3.40;100921.00;;;;5016567;28;20196;-74
2022/12/13 06:17:47;;;;;;;14.63;7.75;;;;;3.40;100911.00;;;;5011513;28;20205;-73
2022/12/13 06:20:14;;;;;;;14.93;7.88;;;;;3.40;100919.00;;;;5018864;28;20201;-73
2022/12/13 06:22:41;;;;;;;14.10;7.88;;;;;3.40;100914.00;;;;5016792;28;20197;-73
2022/12/13 06:25:10;;;;;;;10.88;7.00;;;;;3.40;100919.00;;;;5027004;28;20291;-73
2022/12/13 06:27:37;;;;;;;14.23;8.02;;;;;3.40;100915.00;;;;5026453;28;20212;-73
2022/12/13 06:30:06;;;;;;;13.02;7.90;;;;;3.30;100897.00;;;;5020852;28;20196;-74
2022/12/13 06:32:33;;;;;;;11.60;7.47;;;;;3.30;100911.00;;;;5023858;28;20192;-74
2022/12/13 06:35:00;;;;;;;16.10;8.18;;;;;3.30;100905.00;;;;5022424;28;20554;-74
2022/12/13 06:37:28;;;;;;;14.95;8.68;;;;;3.30;100914.00;;;;5018120;28;20235;-74
2022/12/13 06:39:55;;;;;;;14.63;8.10;;;;;3.30;100908.00;;;;5021439;28;20192;-74
2022/12/13 06:42:24;;;;;;;14.02;7.63;;;;;3.30;100911.00;;;;5028251;28;20192;-74
2022/12/13 06:44:51;;;;;;;11.73;7.03;;;;;3.30;100911.00;;;;5014891;28;20590;-74
2022/12/13 06:47:18;;;;;;;14.38;8.73;;;;;3.30;100912.00;;;;5012333;28;20228;-74
2022/12/13 06:49:46;;;;;;;13.57;8.43;;;;;3.20;100914.00;;;;5013691;28;20193;-74
2022/12/13 06:52:14;;;;;;;14.90;7.53;;;;;3.20;100912.00;;;;5025391;28;20208;-74
2022/12/13 06:54:42;;;;;;;15.02;8.00;;;;;3.20;100913.00;;;;5020720;28;20200;-74
2022/12/13 06:57:10;;;;;;;13.73;7.88;;;;;3.20;100906.00;;;;5019616;28;20204;-74
2022/12/13 06:59:38;;;;;;;12.90;7.97;;;;;3.20;100901.00;;;;5014687;28;20208;-74
2022/12/13 07:02:06;;;;;;;12.40;7.22;;;;;3.20;100909.00;;;;5012891;28;20193;-74
2022/12/13 07:04:34;;;;;;;14.45;7.90;;;;;3.20;100911.00;;;;5017730;28;20209;-75
2022/12/13 07:07:01;;;;;;;13.43;8.02;;;;;3.20;100924.00;;;;5028230;28;20964;-74
2022/12/13 07:09:29;;;;;;;12.35;7.63;;;;;3.20;100929.00;;;;5026580;28;20204;-75
2022/12/13 07:11:56;;;;;;;15.10;8.35;;;;;3.20;100920.00;;;;5019794;28;20699;-74
2022/12/13 07:14:23;;;;;;;15.77;8.52;;;;;3.20;100915.00;;;;5019744;28;20212;-73
2022/12/13 07:16:53;;;;;;;16.63;8.82;;;;;3.20;100925.00;;;;5028982;28;20207;-73
2022/12/13 07:19:22;;;;;;;15.18;8.77;;;;;3.20;100919.00;;;;5020007;28;20201;-73
2022/12/13 07:21:49;;;;;;;14.75;8.52;;;;;3.20;100921.00;;;;5016790;28;20197;-74
2022/12/13 07:24:16;;;;;;;17.27;8.13;;;;;3.10;100932.00;;;;5020148;28;20204;-73
2022/12/13 07:26:43;;;;;;;12.93;7.75;;;;;3.10;100930.00;;;;5018820;28;20204;-74
2022/12/13 07:29:11;;;;;;;14.50;8.10;;;;;3.10;100934.00;;;;5037821;28;20204;-74
2022/12/13 07:31:38;;;;;;;16.23;8.63;;;;;3.10;100946.00;;;;5021097;28;20204;-74
2022/12/13 07:34:07;;;;;;;13.40;8.00;;;;;3.10;100927.00;;;;5034390;28;20194;-73
2022/12/13 07:36:34;;;;;;;13.70;8.63;;;;;3.10;100943.00;;;;5023208;28;20323;-73
2022/12/13 07:39:01;;;;;;;15.52;8.32;;;;;3.10;100933.00;;;;5029525;28;20196;-74
2022/12/13 07:41:29;;;;;;;16.48;8.55;;;;;3.10;100932.00;;;;5014252;28;20185;-74
2022/12/13 07:43:57;;;;;;;15.43;8.38;;;;;3.10;100943.00;;;;5022397;28;20193;-75
2022/12/13 07:46:25;;;;;;;16.70;9.00;;;;;3.10;100942.00;;;;5025265;28;20209;-74
2022/12/13 07:48:52;;;;;;;14.82;9.20;;;;;3.10;100952.00;;;;5015194;28;20236;-74
2022/12/13 07:51:21;;;;;;;14.68;8.38;;;;;3.10;100953.00;;;;5029363;28;20205;-73
2022/12/13 07:53:48;;;;;;;15.55;8.40;;;;;3.10;100946.00;;;;5029649;28;20212;-74
2022/12/13 07:56:15;;;;;;;14.57;9.00;;;;;3.10;100949.00;;;;5027531;28;20200;-74
2022/12/13 07:58:44;;;;;;;14.38;8.20;;;;;3.10;100951.00;;;;5018453;28;20209;-75
2022/12/13 08:01:12;;;;;;;11.60;7.25;;;;;3.10;100950.00;;;;5020596;28;20244;-75
2022/12/13 08:03:39;;;;;;;14.10;8.35;;;;;3.10;100958.00;;;;5019747;28;20205;-75
2022/12/13 08:06:08;;;;;;;14.57;8.38;;;;;3.10;100963.00;;;;5016009;28;20197;-75
2022/12/13 08:08:38;;;;;;;14.70;8.32;;;;;3.10;100961.00;;;;5021344;28;20225;-75
2022/12/13 08:11:07;;;;;;;15.32;8.63;;;;;3.10;100963.00;;;;5012830;28;20217;-75
2022/12/13 08:13:35;;;;;;;13.80;8.30;;;;;3.10;100956.00;;;;5020767;28;20200;-75
2022/12/13 08:16:05;;;;;;;16.08;8.68;;;;;3.10;100965.00;;;;5017997;28;20639;-75
2022/12/13 08:18:32;;;;;;;14.98;9.10;;;;;3.10;100963.00;;;;5021449;28;20255;-74
2022/12/13 08:20:59;;;;;;;17.33;9.50;;;;;3.20;100967.00;;;;5020036;28;20373;-75
2022/12/13 08:23:28;;;;;;;15.52;8.65;;;;;3.20;100968.00;;;;5017986;28;20258;-74
2022/12/13 08:25:56;;;;;;;18.00;9.50;;;;;3.20;100964.00;;;;5019189;28;20216;-74
2022/12/13 08:28:24;;;;;;;15.75;9.55;;;;;3.20;100957.00;;;;5018064;28;20227;-74
2022/12/13 08:30:53;;;;;;;17.63;9.20;;;;;3.20;100960.00;;;;5020352;28;20200;-74
2022/12/13 08:33:20;;;;;;;14.40;8.18;;;;;3.20;100956.00;;;;5018822;28;20196;-75
2022/12/13 08:35:48;;;;;;;16.42;9.30;;;;;3.30;100962.00;;;;5017245;28;20204;-74
2022/12/13 08:38:15;;;;;;;15.75;9.13;;;;;3.30;100958.00;;;;5016794;28;20207;-75
2022/12/13 08:40:43;;;;;;;13.30;8.90;;;;;3.30;100954.00;;;;5020422;28;20197;-74
2022/12/13 08:43:11;;;;;;;15.55;9.15;;;;;3.30;100964.00;;;;5019075;28;20210;-74
2022/12/13 08:45:39;;;;;;;19.00;9.95;;;;;3.40;100967.00;;;;5019546;28;20203;-74
2022/12/13 08:48:06;;;;;;;15.27;9.45;;;;;3.40;100971.00;;;;5017836;28;20215;-75
2022/12/13 08:50:34;;;;;;;13.77;8.25;;;;;3.40;100981.00;;;;5013597;28;20207;-75
2022/12/13 08:53:01;;;;;;;18.45;9.60;;;;;3.50;100974.00;;;;5009247;28;20243;-74
2022/12/13 08:55:28;;;;;;;16.38;9.57;;;;;3.50;100980.00;;;;5013909;28;20212;-75
2022/12/13 08:57:55;;;;;;;19.83;9.95;;;;;3.60;100978.00;;;;5012856;28;20204;-74
2022/12/13 09:00:24;;;;;;;16.77;10.05;;;;;3.60;100976.00;;;;5012077;28;20208;-74
2022/12/13 09:02:52;;;;;;;16.08;8.98;;;;;3.70;100975.00;;;;5010082;28;20687;-75
2022/12/13 09:05:20;;;;;;;16.00;9.88;;;;;3.70;100987.00;;;;5009679;28;20219;-74
2022/12/13 09:07:47;;;;;;;19.20;10.35;;;;;3.70;100978.00;;;;5020272;28;20232;-75
2022/12/13 09:10:14;;;;;;;15.35;9.82;;;;;3.80;100977.00;;;;5023099;28;20216;-74
2022/12/13 09:12:42;;;;;;;16.25;9.40;;;;;3.80;100976.00;;;;5017576;28;20196;-74
2022/12/13 09:15:10;;;;;;;19.27;11.02;;;;;3.90;100971.00;;;;5013047;28;20617;-74
2022/12/13 09:17:39;;;;;;;18.48;10.32;;;;;3.90;100977.00;;;;5019905;28;20196;-74
2022/12/13 09:20:10;;;;;;;20.50;11.43;;;;;3.90;100982.00;;;;5016591;28;20233;-74
2022/12/13 09:22:38;;;;;;;20.17;10.77;;;;;4.00;100979.00;;;;5008754;28;20193;-75
2022/12/13 09:25:06;;;;;;;18.92;10.80;;;;;4.00;100977.00;;;;5008215;28;20201;-75
2022/12/13 09:27:34;;;;;;;20.05;10.93;;;;;4.10;100976.00;;;;5022696;28;20390;-75
2022/12/13 09:30:01;;;;;;;19.10;11.50;;;;;4.20;100982.00;;;;5010873;28;20212;-75
2022/12/13 09:32:29;;;;;;;19.83;11.55;;;;;4.20;100982.00;;;;5007977;28;20204;-75
2022/12/13 09:34:57;;;;;;;18.50;11.43;;;;;4.20;100986.00;;;;5019836;28;20204;-75
2022/12/13 09:37:25;;;;;;;17.10;10.35;;;;;4.30;100990.00;;;;5015073;28;20235;-75
2022/12/13 09:39:52;;;;;;;17.80;11.55;;;;;4.30;100978.00;;;;5011986;28;20209;-75
2022/12/13 09:42:23;;;;;;;20.25;11.95;;;;;4.30;100980.00;;;;5015873;28;20604;-75
2022/12/13 09:44:53;;;;;;;19.30;10.77;;;;;4.40;100978.00;;;;5021458;28;20192;-75
2022/12/13 09:47:30;;;;;;;21.40;11.73;;;;;4.40;100979.00;;;;5013410;28;20207;-75
2022/12/13 09:50:00;;;;;;;19.90;11.18;;;;;4.50;100966.00;;;;5013194;28;20197;-75
2022/12/13 09:52:38;;;;;;;19.88;11.70;;;;;4.50;100978.00;;;;5015167;28;20279;-75
2022/12/13 09:55:21;;;;;;;20.15;12.25;;;;;4.50;100964.00;;;;5014259;28;20192;-75
2022/12/13 09:57:48;;;;;;;18.48;11.25;;;;;4.60;100960.00;;;;5016390;28;20576;-75
2022/12/13 10:00:18;;;;;;;19.40;11.32;;;;;4.70;100964.00;;;;5007416;28;21842;-75
2022/12/13 10:02:48;;;;;;;21.15;11.40;;;;;4.70;100954.00;;;;5016501;28;20216;-75
2022/12/13 10:05:23;;;;;;;20.02;11.25;;;;;4.70;100951.00;;;;5011960;28;20269;-75
2022/12/13 10:07:54;;;;;;;21.52;12.02;;;;;4.80;100952.00;;;;5020219;28;20229;-75
2022/12/13 10:10:21;;;;;;;19.27;12.10;;;;;4.80;100945.00;;;;5014086;28;20566;-75
2022/12/13 10:12:54;;;;;;;21.05;11.98;;;;;4.90;100944.00;;;;5011687;28;20577;-75
2022/12/13 10:15:23;;;;;;;18.63;10.75;;;;;4.90;100943.00;;;;5013015;28;20593;-75
2022/12/13 10:17:51;;;;;;;22.50;11.75;;;;;5.00;100944.00;;;;5010601;28;20201;-74
2022/12/13 10:20:22;;;;;;;20.70;11.40;;;;;5.00;100936.00;;;;5009648;28;20211;-74
2022/12/13 10:22:50;;;;;;;20.52;11.77;;;;;5.00;100931.00;;;;5014207;28;20193;-74
2022/12/13 10:25:37;;;;;;;20.90;12.57;;;;;5.10;100925.00;;;;5009068;28;20205;-75
2022/12/13 10:28:07;;;;;;;20.73;11.55;;;;;5.10;100919.00;;;;5012619;28;20212;-75
2022/12/13 10:30:41;;;;;;;21.52;11.43;;;;;5.10;100923.00;;;;5019862;28;20731;-73
2022/12/13 10:33:21;;;;;;;18.58;11.27;;;;;5.10;100922.00;;;;5013912;28;20201;-73
2022/12/13 10:36:04;;;;;;;19.75;11.15;;;;;5.10;100921.00;;;;5007745;28;20203;-74
2022/12/13 10:38:35;;;;;;;21.25;11.90;;;;;5.20;100926.00;;;;5013058;28;20193;-74
2022/12/13 10:41:03;;;;;;;20.77;11.45;;;;;5.30;100930.00;;;;5016398;28;20259;-74
2022/12/13 10:43:31;;;;;;;20.75;12.43;;;;;5.30;100913.00;;;;5008062;28;20586;-73
2022/12/13 10:46:00;;;;;;;18.63;11.38;;;;;5.40;100920.00;;;;5015791;28;20208;-74
2022/12/13 10:48:35;;;;;;;19.40;11.20;;;;;5.40;100912.00;;;;5005744;28;20769;-73
2022/12/13 10:51:06;;;;;;;17.48;10.63;;;;;5.50;100902.00;;;;5010820;28;20184;-73
2022/12/13 10:53:36;;;;;;;23.33;12.95;;;;;5.50;100911.00;;;;5015174;28;20211;-73
2022/12/13 10:56:04;;;;;;;17.27;11.32;;;;;5.60;100905.00;;;;5017314;28;20205;-74
2022/12/13 10:58:37;;;;;;;17.00;10.35;;;;;5.60;100901.00;;;;5012515;28;20193;-73
2022/12/13 11:01:11;;;;;;;18.15;10.93;;;;;5.70;100894.00;;;;5021182;28;20581;-74
2022/12/13 11:03:38;;;;;;;21.27;12.93;;;;;5.80;100909.00;;;;5019351;28;20204;-73
2022/12/13 11:06:14;;;;;;;20.27;11.30;;;;;5.80;100905.00;;;;5009416;28;20208;-74
2022/12/13 11:08:41;;;;;;;19.00;11.52;;;;;5.90;100918.00;;;;5018456;28;20657;-74
2022/12/13 11:11:11;;;;;;;20.80;12.13;;;;;6.00;100909.00;;;;5013099;28;20579;-73
2022/12/13 11:13:42;;;;;;;21.45;12.40;;;;;6.00;100901.00;;;;5020734;28;20674;-74
2022/12/13 11:16:23;;;;;;;20.58;11.73;;;;;6.00;100905.00;;;;5018139;28;20205;-74
2022/12/13 11:18:54;;;;;;;18.25;10.93;;;;;6.10;100900.00;;;;5021857;28;20204;-74
2022/12/13 11:21:27;;;;;;;19.40;11.63;;;;;6.20;100890.00;;;;5018311;28;20197;-74
2022/12/13 11:23:57;;;;;;;19.77;11.80;;;;;6.20;100887.00;;;;5020635;28;20588;-74
2022/12/13 11:26:27;;;;;;;18.40;11.30;;;;;6.30;100883.00;;;;5018235;28;20200;-74
2022/12/13 11:29:23;;;;;;;22.73;12.00;;;;;6.20;100886.00;;;;5020335;28;20228;-74
2022/12/13 11:32:02;;;;;;;17.67;10.27;;;;;6.30;100900.00;;;;5018157;28;20196;-74
2022/12/13 11:34:38;;;;;;;18.35;11.20;;;;;6.40;100885.00;;;;5017795;28;20247;-73
2022/12/13 11:37:17;;;;;;;22.25;12.13;;;;;6.40;100890.00;;;;5010220;28;20232;-74
2022/12/13 11:39:49;;;;;;;19.80;11.35;;;;;6.50;100884.00;;;;5014392;28;20199;-74
2022/12/13 11:42:24;;;;;;;18.90;11.68;;;;;6.50;100883.00;;;;5016303;28;20804;-74
2022/12/13 11:44:59;;;;;;;20.60;11.48;;;;;6.50;100874.00;;;;5019522;28;20712;-74
2022/12/13 11:47:35;;;;;;;20.52;11.20;;;;;6.60;100863.00;;;;5022798;28;20197;-74
2022/12/13 11:50:05;;;;;;;20.83;12.00;;;;;6.60;100857.00;;;;5021677;28;20707;-74
2022/12/13 11:52:39;;;;;;;16.63;10.68;;;;;6.60;100864.00;;;;5018045;28;20236;-74
2022/12/13 11:55:16;;;;;;;18.88;11.48;;;;;6.60;100854.00;;;;5014221;28;20197;-74
2022/12/13 11:57:47;;;;;;;18.83;11.38;;;;;6.70;100851.00;;;;5022445;28;20216;-74
2022/12/13 12:00:34;;;;;;;21.33;11.73;;;;;6.60;100859.00;;;;5017751;28;20196;-74
2022/12/13 12:03:13;;;;;;;21.55;11.70;;;;;6.70;100850.00;;;;5019747;28;20208;-74
2022/12/13 12:05:46;;;;;;;21.17;11.00;;;;;6.80;100844.00;;;;5021738;28;20190;-74
2022/12/13 12:08:23;;;;;;;19.85;11.02;;;;;6.80;100847.00;;;;5020197;28;20258;-74
2022/12/13 12:11:01;;;;;;;17.35;10.35;;;;;6.80;100851.00;;;;5017227;28;20208;-74
2022/12/13 12:13:35;;;;;;;18.65;10.77;;;;;6.80;100865.00;;;;5026892;28;20283;-75
2022/12/13 12:16:10;;;;;;;20.70;11.60;;;;;6.80;100856.00;;;;5007254;28;20714;-75
2022/12/13 12:18:37;;;;;;;19.55;11.30;;;;;6.90;100856.00;;;;5007322;28;20204;-75
2022/12/13 12:21:16;;;;;;;18.00;11.13;;;;;6.80;100858.00;;;;5007681;28;20192;-75
2022/12/13 12:23:56;;;;;;;18.95;11.02;;;;;6.80;100855.00;;;;5009396;28;20204;-75